Time;durP1;ratioP1;P1;durP2;ratioP2;P2;SDS_P1;SDS_P2;PMS_P1;PMS_P2;Temp;Humidity;BMP_temperature;BMP_pressure;BME280_temperature;BME280_humidity;BME280_pressure;Samples;Min_cycle;Max_cycle;Signal;HPM_P1;HPM_P2
2021/07/13 00:00:48;;;;;;;1.25;1.15;;;27.80;70.30;;;;;;5084538;28;20028;-42
2021/07/13 00:03:14;;;;;;;1.37;0.93;;;27.70;70.10;;;;;;5084421;28;20123;-42
2021/07/13 00:05:41;;;;;;;1.50;1.13;;;27.70;70.20;;;;;;5084048;28;20020;-42
2021/07/13 00:08:07;;;;;;;1.48;1.23;;;27.80;70.30;;;;;;5084315;28;20021;-42
2021/07/13 00:10:39;;;;;;;1.40;0.90;;;27.70;70.10;;;;;;5063106;28;20417;-43
2021/07/13 00:13:06;;;;;;;2.25;1.30;;;27.70;70.20;;;;;;5063017;28;20270;-42
2021/07/13 00:15:37;;;;;;;1.17;0.98;;;27.80;70.30;;;;;;5064156;28;20086;-42
2021/07/13 00:18:04;;;;;;;1.38;0.95;;;27.70;70.30;;;;;;5064171;28;20036;-42
2021/07/13 00:20:30;;;;;;;;;;;27.70;70.30;;;;;;5064786;28;20112;-42
2021/07/13 00:22:56;;;;;;;1.85;1.25;;;27.70;70.30;;;;;;5069491;28;19963;-42
2021/07/13 00:25:24;;;;;;;1.50;1.00;;;27.70;70.30;;;;;;5084175;28;20020;-43
2021/07/13 00:27:50;;;;;;;1.58;1.00;;;27.70;70.30;;;;;;5083695;28;20273;-42
2021/07/13 00:30:17;;;;;;;1.27;0.90;;;27.70;70.40;;;;;;5083943;28;20672;-42
2021/07/13 00:32:43;;;;;;;1.17;0.98;;;27.70;70.40;;;;;;5093484;28;20066;-42
2021/07/13 00:35:10;;;;;;;2.40;1.03;;;27.70;70.40;;;;;;5104115;28;20119;-42
2021/07/13 00:37:37;;;;;;;3.72;1.50;;;27.70;70.50;;;;;;5104282;28;20028;-42
2021/07/13 00:40:05;;;;;;;1.48;0.85;;;27.60;70.40;;;;;;5104088;28;20099;-42
2021/07/13 00:42:31;;;;;;;2.45;1.05;;;27.60;70.50;;;;;;5104124;28;20134;-42
2021/07/13 00:44:57;;;;;;;1.70;1.00;;;27.60;70.50;;;;;;5103955;28;20039;-42
2021/07/13 00:47:24;;;;;;;2.50;0.83;;;27.60;70.60;;;;;;5103817;28;20016;-42
2021/07/13 00:49:50;;;;;;;2.08;1.10;;;27.60;70.60;;;;;;5086157;28;20035;-42
2021/07/13 00:52:18;;;;;;;0.87;0.73;;;27.60;70.50;;;;;;5104023;28;20024;-42
2021/07/13 00:54:47;;;;;;;1.10;0.90;;;27.60;70.60;;;;;;5103941;28;20095;-42
2021/07/13 00:57:13;;;;;;;2.05;0.93;;;27.60;70.50;;;;;;5085622;28;20040;-42
2021/07/13 00:59:40;;;;;;;3.13;0.82;;;27.60;70.60;;;;;;5103674;28;20032;-42
2021/07/13 01:02:07;;;;;;;2.25;1.10;;;27.50;70.40;;;;;;5103992;28;20039;-42
2021/07/13 01:04:38;;;;;;;1.90;1.00;;;27.50;70.40;;;;;;5103851;28;20040;-42
2021/07/13 01:07:09;;;;;;;2.67;0.80;;;27.50;70.40;;;;;;5103458;28;20101;-42
2021/07/13 01:09:47;;;;;;;2.40;0.90;;;27.50;70.50;;;;;;5103228;28;20035;-47
2021/07/13 01:12:29;;;;;;;1.05;0.80;;;27.50;70.40;;;;;;5103702;28;20032;-42
2021/07/13 01:14:56;;;;;;;3.45;0.98;;;27.50;70.40;;;;;;5086846;28;20020;-42
2021/07/13 01:17:33;;;;;;;1.50;0.90;;;27.50;70.30;;;;;;5081921;28;20182;-42
2021/07/13 01:20:37;;;;;;;2.08;0.73;;;27.40;70.20;;;;;;5083625;28;20048;-42
2021/07/13 01:23:17;;;;;;;1.00;0.80;;;27.40;70.20;;;;;;5098907;28;20028;-42
2021/07/13 01:26:06;;;;;;;0.90;0.80;;;27.40;70.20;;;;;;5103579;28;20036;-42
2021/07/13 01:28:46;;;;;;;1.80;0.73;;;27.40;70.20;;;;;;5103023;28;20091;-41
2021/07/13 01:31:16;;;;;;;1.75;0.88;;;27.40;70.30;;;;;;5103338;28;20061;-42
2021/07/13 01:33:45;;;;;;;1.27;0.80;;;27.40;70.30;;;;;;5081680;28;20072;-42
2021/07/13 01:36:32;;;;;;;1.15;0.80;;;27.30;70.20;;;;;;5081535;28;20504;-42
2021/07/13 01:38:58;;;;;;;1.20;0.65;;;27.30;70.30;;;;;;5061741;28;20025;-42
2021/07/13 01:41:25;;;;;;;1.08;0.70;;;27.30;70.20;;;;;;5063139;28;20052;-42
2021/07/13 01:43:51;;;;;;;2.08;1.00;;;27.30;70.20;;;;;;5063098;28;20044;-42
2021/07/13 01:46:18;;;;;;;1.50;0.90;;;27.30;70.20;;;;;;5063197;28;20029;-42
2021/07/13 01:48:45;;;;;;;1.58;0.77;;;27.20;70.10;;;;;;5045137;28;20085;-42
2021/07/13 01:51:11;;;;;;;1.35;0.80;;;27.20;70.10;;;;;;5045203;28;20029;-42
2021/07/13 01:53:38;;;;;;;1.47;0.87;;;27.20;70.00;;;;;;5061660;28;20513;-43
2021/07/13 01:56:04;;;;;;;1.75;0.80;;;27.20;70.10;;;;;;5061710;28;20032;-42
2021/07/13 01:58:30;;;;;;;1.85;0.90;;;27.20;70.10;;;;;;5080350;28;20016;-42
2021/07/13 02:01:04;;;;;;;1.27;0.70;;;27.20;70.10;;;;;;5081756;28;20390;-42
2021/07/13 02:03:30;;;;;;;0.95;0.73;;;27.20;70.00;;;;;;5081705;28;20044;-42
2021/07/13 02:05:56;;;;;;;0.88;0.70;;;27.20;70.00;;;;;;5083091;28;20020;-42
2021/07/13 02:08:22;;;;;;;3.20;0.80;;;27.20;69.90;;;;;;5081394;28;20032;-42
2021/07/13 02:10:49;;;;;;;1.50;0.63;;;27.10;69.90;;;;;;5065137;28;20051;-42
2021/07/13 02:13:16;;;;;;;0.70;0.68;;;27.10;69.80;;;;;;5082729;28;20523;-43
2021/07/13 02:15:42;;;;;;;1.30;0.70;;;27.10;69.70;;;;;;5081608;28;20044;-42
2021/07/13 02:18:09;;;;;;;0.97;0.60;;;27.10;69.80;;;;;;5082867;28;20116;-42
2021/07/13 02:20:35;;;;;;;2.22;0.90;;;27.10;69.90;;;;;;5082986;28;20028;-42
2021/07/13 02:23:02;;;;;;;3.07;0.60;;;27.10;69.70;;;;;;5086056;28;20044;-42
2021/07/13 02:25:28;;;;;;;1.83;0.63;;;27.10;69.70;;;;;;5086759;28;20051;-42
2021/07/13 02:28:09;;;;;;;0.60;0.50;;;27.10;69.70;;;;;;5086572;28;20265;-42
2021/07/13 02:30:36;;;;;;;1.13;0.70;;;27.00;69.70;;;;;;5086549;28;20481;-42
2021/07/13 02:33:09;;;;;;;2.95;0.75;;;27.00;69.70;;;;;;5068430;28;20040;-42
2021/07/13 02:35:41;;;;;;;1.70;0.80;;;27.00;69.70;;;;;;5084937;28;20032;-42
2021/07/13 02:38:08;;;;;;;0.98;0.60;;;27.00;69.60;;;;;;5085127;28;20044;-43
2021/07/13 02:40:34;;;;;;;1.40;0.70;;;27.00;69.70;;;;;;5064697;28;20481;-42
2021/07/13 02:43:00;;;;;;;0.90;0.50;;;27.00;69.70;;;;;;5064986;28;20033;-42
2021/07/13 02:45:26;;;;;;;0.80;0.53;;;27.00;69.60;;;;;;5066359;28;20254;-42
2021/07/13 02:47:54;;;;;;;1.23;0.70;;;27.00;69.80;;;;;;5064976;28;20021;-42
2021/07/13 02:50:22;;;;;;;0.80;0.70;;;26.90;69.60;;;;;;5064560;28;20033;-42
2021/07/13 02:52:48;;;;;;;1.17;0.60;;;26.90;69.80;;;;;;5064677;28;20032;-42
2021/07/13 02:55:17;;;;;;;2.47;0.87;;;26.90;69.70;;;;;;5065013;28;20029;-42
2021/07/13 02:57:46;;;;;;;1.50;0.50;;;26.90;69.80;;;;;;5077107;28;20036;-42
2021/07/13 03:00:14;;;;;;;1.55;0.68;;;26.90;69.70;;;;;;5085767;28;20028;-42
2021/07/13 03:02:41;;;;;;;1.17;0.60;;;26.90;69.80;;;;;;5085953;28;20062;-42
2021/07/13 03:05:10;;;;;;;0.88;0.60;;;26.90;69.80;;;;;;5067951;28;20078;-42
2021/07/13 03:07:37;;;;;;;0.60;0.55;;;26.80;69.80;;;;;;5084783;28;20024;-42
2021/07/13 03:10:03;;;;;;;0.80;0.50;;;26.90;69.80;;;;;;5084193;28;20044;-42
2021/07/13 03:12:30;;;;;;;1.48;0.70;;;26.80;69.70;;;;;;5085563;28;20021;-42
2021/07/13 03:14:57;;;;;;;0.82;0.68;;;26.80;69.70;;;;;;5084420;28;20112;-42
2021/07/13 03:17:23;;;;;;;0.80;0.50;;;26.80;69.80;;;;;;5084344;28;20025;-42
2021/07/13 03:19:49;;;;;;;1.23;0.70;;;26.80;69.60;;;;;;5067517;28;20074;-42
2021/07/13 03:22:27;;;;;;;2.50;0.60;;;26.80;69.60;;;;;;5084214;28;20027;-42
2021/07/13 03:24:53;;;;;;;1.13;0.57;;;26.80;69.60;;;;;;5083998;28;20047;-42
2021/07/13 03:27:20;;;;;;;1.65;0.60;;;26.70;69.50;;;;;;5085489;28;20443;-42
2021/07/13 03:29:47;;;;;;;1.48;0.65;;;26.70;69.50;;;;;;5063333;28;20059;-42
2021/07/13 03:32:15;;;;;;;1.02;0.60;;;26.70;69.40;;;;;;5063439;28;20045;-42
2021/07/13 03:34:41;;;;;;;4.22;0.70;;;26.70;69.60;;;;;;5063901;28;20573;-43
2021/07/13 03:37:08;;;;;;;0.93;0.60;;;26.70;69.40;;;;;;5064381;28;20033;-42
2021/07/13 03:39:34;;;;;;;1.00;0.70;;;26.70;69.40;;;;;;5072246;28;20131;-42
2021/07/13 03:42:01;;;;;;;2.27;0.60;;;26.70;69.40;;;;;;5063982;28;20021;-42
2021/07/13 03:44:27;;;;;;;1.13;0.55;;;26.70;69.50;;;;;;5080429;28;20059;-42
2021/07/13 03:46:53;;;;;;;2.60;0.70;;;26.70;69.60;;;;;;5080468;28;20029;-43
2021/07/13 03:49:22;;;;;;;0.57;0.57;;;26.60;69.30;;;;;;5065049;28;20394;-42
2021/07/13 03:51:48;;;;;;;0.90;0.60;;;26.60;69.40;;;;;;5080174;28;20032;-42
2021/07/13 03:54:16;;;;;;;2.40;0.73;;;26.60;69.40;;;;;;5065051;28;20133;-42
2021/07/13 03:56:42;;;;;;;0.95;0.60;;;26.60;69.40;;;;;;5067821;28;20032;-42
2021/07/13 03:59:09;;;;;;;1.25;0.63;;;26.60;69.50;;;;;;5084949;28;20025;-42
2021/07/13 04:01:35;;;;;;;1.35;0.73;;;26.50;69.50;;;;;;5084773;28;20111;-42
2021/07/13 04:04:02;;;;;;;1.02;0.50;;;26.50;69.60;;;;;;5084591;28;20044;-42
2021/07/13 04:06:29;;;;;;;0.50;0.50;;;26.50;69.60;;;;;;5084653;28;20242;-42
2021/07/13 04:08:55;;;;;;;0.82;0.73;;;26.50;69.60;;;;;;5069972;28;20066;-42
2021/07/13 04:11:22;;;;;;;1.15;0.50;;;26.50;69.70;;;;;;5084586;28;20056;-42
2021/07/13 04:13:48;;;;;;;2.67;0.70;;;26.50;69.70;;;;;;5084573;28;20036;-42
2021/07/13 04:16:14;;;;;;;2.67;0.77;;;26.50;69.60;;;;;;5084437;28;20092;-42
2021/07/13 04:18:40;;;;;;;1.00;0.67;;;26.50;69.50;;;;;;5084636;28;20032;-42
2021/07/13 04:21:06;;;;;;;1.03;0.60;;;26.40;69.50;;;;;;5082959;28;20024;-42
2021/07/13 04:23:33;;;;;;;1.40;0.60;;;26.50;69.60;;;;;;5084209;28;20284;-44
2021/07/13 04:25:59;;;;;;;;;;;26.40;69.60;;;;;;5084328;28;20110;-43
2021/07/13 04:28:31;;;;;;;0.70;0.50;;;26.40;69.40;;;;;;5084444;28;19912;-42
2021/07/13 04:30:58;;;;;;;1.25;0.45;;;26.40;69.50;;;;;;5083926;28;20035;-42
2021/07/13 04:33:24;;;;;;;;;;;26.40;69.50;;;;;;5099562;28;20056;-42
2021/07/13 04:35:50;;;;;;;3.30;0.80;;;26.40;69.50;;;;;;5104703;28;19915;-43
2021/07/13 04:38:16;;;;;;;1.30;0.63;;;26.40;69.60;;;;;;5104412;28;20024;-42
2021/07/13 04:40:42;;;;;;;2.00;0.70;;;26.40;69.50;;;;;;5103964;28;20020;-42
2021/07/13 04:43:08;;;;;;;1.20;0.80;;;26.30;69.60;;;;;;5104218;28;20062;-42
2021/07/13 04:45:34;;;;;;;1.50;0.95;;;26.30;69.50;;;;;;5085280;28;20020;-42
2021/07/13 04:48:00;;;;;;;0.93;0.80;;;26.30;69.60;;;;;;5104212;28;20954;-43
2021/07/13 04:50:27;;;;;;;1.65;0.63;;;26.30;69.60;;;;;;5103948;28;20030;-43
2021/07/13 04:52:53;;;;;;;1.37;0.70;;;26.30;69.50;;;;;;5103942;28;20031;-42
2021/07/13 04:55:19;;;;;;;3.13;0.70;;;26.30;69.60;;;;;;5103985;28;20116;-42
2021/07/13 04:57:45;;;;;;;1.37;0.60;;;26.30;69.60;;;;;;5103945;28;20032;-42
2021/07/13 05:00:12;;;;;;;0.95;0.60;;;26.20;69.60;;;;;;5103618;28;20024;-42
2021/07/13 05:02:39;;;;;;;2.45;0.98;;;26.30;69.80;;;;;;5103797;28;20042;-42
2021/07/13 05:05:06;;;;;;;1.90;0.87;;;26.30;69.80;;;;;;5103779;28;20036;-42
2021/07/13 05:07:32;;;;;;;1.58;0.73;;;26.20;69.50;;;;;;5085448;28;20114;-42
2021/07/13 05:09:59;;;;;;;1.65;0.75;;;26.20;69.60;;;;;;5103436;28;20058;-43
2021/07/13 05:12:25;;;;;;;1.35;0.60;;;26.20;69.60;;;;;;5103490;28;20028;-42
2021/07/13 05:14:51;;;;;;;1.70;0.70;;;26.20;69.50;;;;;;5103660;28;20036;-43
2021/07/13 05:17:17;;;;;;;0.73;0.60;;;26.20;69.70;;;;;;5103624;28;20083;-42
2021/07/13 05:19:44;;;;;;;1.05;0.50;;;26.20;69.60;;;;;;5103277;28;20381;-41
2021/07/13 05:22:11;;;;;;;1.35;0.70;;;26.10;69.50;;;;;;5103435;28;20034;-42
2021/07/13 05:24:37;;;;;;;1.42;0.57;;;26.20;69.70;;;;;;5103262;28;20040;-42
2021/07/13 05:27:03;;;;;;;1.53;0.70;;;26.10;69.60;;;;;;5103306;28;20020;-43
2021/07/13 05:29:32;;;;;;;1.30;0.70;;;26.10;69.60;;;;;;5103131;28;20067;-42
2021/07/13 05:31:58;;;;;;;0.57;0.50;;;26.10;69.50;;;;;;5102797;28;20040;-42
2021/07/13 05:34:24;;;;;;;2.83;0.77;;;26.10;69.60;;;;;;5103107;28;20032;-42
2021/07/13 05:36:50;;;;;;;0.87;0.57;;;26.10;69.70;;;;;;5103393;28;20047;-42
2021/07/13 05:39:17;;;;;;;0.67;0.60;;;26.10;69.60;;;;;;5103037;28;20393;-43
2021/07/13 05:41:43;;;;;;;1.63;0.60;;;26.10;69.60;;;;;;5103173;28;20031;-42
2021/07/13 05:44:09;;;;;;;1.05;0.68;;;26.10;69.60;;;;;;5103117;28;20075;-42
2021/07/13 05:46:35;;;;;;;0.75;0.40;;;26.00;69.60;;;;;;5103111;28;20024;-42
2021/07/13 05:49:01;;;;;;;1.57;0.70;;;26.00;69.50;;;;;;5102978;28;20048;-42
2021/07/13 05:51:28;;;;;;;1.50;0.70;;;26.00;69.60;;;;;;5103071;28;20024;-42
2021/07/13 05:53:55;;;;;;;2.53;0.60;;;26.00;69.60;;;;;;5103225;28;20036;-41
2021/07/13 05:56:21;;;;;;;0.93;0.70;;;26.00;69.60;;;;;;5104955;28;20012;-42
2021/07/13 05:58:48;;;;;;;2.95;0.63;;;26.00;69.60;;;;;;5107144;28;20020;-41
2021/07/13 06:01:14;;;;;;;1.60;0.60;;;26.00;69.60;;;;;;5106503;28;20028;-44
2021/07/13 06:03:40;;;;;;;0.70;0.67;;;26.00;69.70;;;;;;5106824;28;20040;-42
2021/07/13 06:06:06;;;;;;;1.40;0.70;;;25.90;69.60;;;;;;5107195;28;20031;-42
2021/07/13 06:08:32;;;;;;;0.68;0.60;;;25.90;69.60;;;;;;5106943;28;20107;-42
2021/07/13 06:10:58;;;;;;;1.13;0.60;;;25.90;69.60;;;;;;5106561;28;20032;-42
2021/07/13 06:13:25;;;;;;;2.75;0.70;;;25.90;69.60;;;;;;5106962;28;20034;-42
2021/07/13 06:15:51;;;;;;;0.73;0.73;;;25.90;69.60;;;;;;5106634;28;20028;-42
2021/07/13 06:18:20;;;;;;;0.80;0.60;;;25.90;69.60;;;;;;5106958;28;20283;-42
2021/07/13 06:20:47;;;;;;;0.98;0.68;;;25.90;69.60;;;;;;5106524;28;20499;-42
2021/07/13 06:23:13;;;;;;;1.80;0.75;;;25.80;69.60;;;;;;5106156;28;20039;-42
2021/07/13 06:25:39;;;;;;;1.23;0.70;;;25.80;69.60;;;;;;5106497;28;20064;-42
2021/07/13 06:28:06;;;;;;;1.57;0.70;;;25.80;69.60;;;;;;5106638;28;20023;-42
2021/07/13 06:30:34;;;;;;;1.50;0.68;;;25.80;69.60;;;;;;5106303;28;20300;-41
2021/07/13 06:33:00;;;;;;;1.40;0.80;;;25.80;69.70;;;;;;5106355;28;20060;-42
2021/07/13 06:35:27;;;;;;;1.00;0.60;;;25.80;69.60;;;;;;5106479;28;20476;-42
2021/07/13 06:37:53;;;;;;;0.60;0.57;;;25.80;69.70;;;;;;5106331;28;20066;-41
2021/07/13 06:40:19;;;;;;;1.42;0.80;;;25.80;69.60;;;;;;5106031;28;20024;-42
2021/07/13 06:42:45;;;;;;;2.23;0.63;;;25.80;69.60;;;;;;5106174;28;20563;-42
2021/07/13 06:45:12;;;;;;;2.35;0.73;;;25.80;69.70;;;;;;5106199;28;20028;-42
2021/07/13 06:47:38;;;;;;;0.50;0.50;;;25.80;69.70;;;;;;5106221;28;20021;-42
2021/07/13 06:50:05;;;;;;;0.77;0.68;;;25.80;69.80;;;;;;5105866;28;20128;-42
2021/07/13 06:52:31;;;;;;;1.00;0.70;;;25.80;69.80;;;;;;5106165;28;20021;-42
2021/07/13 06:55:01;;;;;;;1.27;0.68;;;25.70;69.80;;;;;;5105997;28;20561;-43
2021/07/13 06:57:27;;;;;;;1.13;0.55;;;25.70;69.70;;;;;;5106241;28;20103;-42
2021/07/13 06:59:53;;;;;;;1.40;0.70;;;25.70;69.70;;;;;;5105485;28;20046;-42
2021/07/13 07:02:19;;;;;;;1.05;0.57;;;25.70;69.80;;;;;;5105877;28;20039;-42
2021/07/13 07:04:45;;;;;;;1.30;0.70;;;25.70;69.80;;;;;;5105882;28;20032;-42
2021/07/13 07:07:11;;;;;;;0.77;0.68;;;25.70;69.80;;;;;;5105083;28;20089;-43
2021/07/13 07:09:37;;;;;;;0.82;0.73;;;25.70;69.80;;;;;;5105852;28;20024;-41
2021/07/13 07:12:04;;;;;;;2.05;0.90;;;25.60;70.50;;;;;;5087109;28;20030;-42
2021/07/13 07:14:30;;;;;;;1.00;0.68;;;25.60;69.80;;;;;;5105782;28;20028;-41
2021/07/13 07:16:56;;;;;;;2.03;0.77;;;25.60;69.70;;;;;;5105580;28;20061;-42
2021/07/13 07:19:22;;;;;;;2.20;0.80;;;25.60;69.80;;;;;;5105427;28;20028;-43
2021/07/13 07:21:48;;;;;;;1.95;0.65;;;25.60;69.80;;;;;;5105413;28;20032;-41
2021/07/13 07:24:15;;;;;;;1.63;0.60;;;25.60;69.70;;;;;;5105461;28;20065;-42
2021/07/13 07:26:41;;;;;;;1.75;0.80;;;25.60;69.80;;;;;;5105143;28;20023;-42
2021/07/13 07:29:07;;;;;;;0.63;0.63;;;25.60;69.80;;;;;;5087387;28;20024;-41
2021/07/13 07:31:33;;;;;;;1.67;0.80;;;25.60;69.80;;;;;;5105032;28;20107;-42
2021/07/13 07:33:59;;;;;;;1.20;0.75;;;25.60;69.80;;;;;;5105029;28;20081;-41
2021/07/13 07:36:27;;;;;;;1.63;0.70;;;25.60;69.90;;;;;;5105544;28;20032;-41
2021/07/13 07:38:53;;;;;;;1.25;0.70;;;25.60;69.90;;;;;;5105164;28;20024;-42
2021/07/13 07:41:20;;;;;;;1.15;0.70;;;25.60;69.90;;;;;;5104838;28;20046;-42
2021/07/13 07:43:47;;;;;;;1.27;0.80;;;25.60;69.90;;;;;;5105152;28;20035;-42
2021/07/13 07:46:13;;;;;;;2.63;0.80;;;25.60;69.90;;;;;;5105285;28;20035;-42
2021/07/13 07:48:39;;;;;;;0.98;0.60;;;25.50;69.90;;;;;;5105231;28;20128;-41
2021/07/13 07:51:06;;;;;;;1.00;0.75;;;25.60;69.90;;;;;;5104883;28;20020;-41
2021/07/13 07:53:32;;;;;;;1.10;0.60;;;25.60;70.00;;;;;;5104941;28;20020;-41
2021/07/13 07:55:58;;;;;;;1.80;0.82;;;25.50;70.00;;;;;;5104759;28;20020;-42
2021/07/13 07:58:24;;;;;;;1.00;0.80;;;25.50;70.10;;;;;;5105239;28;20024;-42
2021/07/13 08:00:51;;;;;;;1.38;0.65;;;25.50;70.00;;;;;;5104448;28;20523;-42
2021/07/13 08:03:17;;;;;;;0.82;0.65;;;25.50;70.00;;;;;;5104843;28;20051;-42
2021/07/13 08:05:43;;;;;;;1.13;0.68;;;25.50;70.10;;;;;;5104516;28;20049;-42
2021/07/13 08:08:09;;;;;;;2.60;0.80;;;25.50;70.10;;;;;;5104725;28;20032;-42
2021/07/13 08:10:36;;;;;;;1.93;0.67;;;25.50;70.10;;;;;;5104577;28;20074;-42
2021/07/13 08:13:04;;;;;;;1.30;0.63;;;25.40;70.00;;;;;;5104428;28;20430;-42
2021/07/13 08:15:30;;;;;;;1.95;0.90;;;25.50;70.10;;;;;;5104622;28;20489;-42
2021/07/13 08:17:56;;;;;;;1.35;0.60;;;25.50;70.10;;;;;;5086209;28;20034;-42
2021/07/13 08:20:23;;;;;;;0.98;0.80;;;25.40;70.00;;;;;;5104514;28;20103;-42
2021/07/13 08:22:49;;;;;;;1.40;0.88;;;25.50;70.00;;;;;;5103875;28;20820;-42
2021/07/13 08:25:17;;;;;;;1.88;0.90;;;25.40;70.10;;;;;;5104333;28;20392;-42
2021/07/13 08:27:44;;;;;;;0.82;0.80;;;25.40;70.20;;;;;;5069658;28;20042;-42
2021/07/13 08:30:10;;;;;;;2.90;0.95;;;25.40;70.10;;;;;;5104238;28;20104;-42
2021/07/13 08:32:36;;;;;;;1.13;0.68;;;25.40;70.10;;;;;;5103988;28;20032;-42
2021/07/13 08:35:04;;;;;;;1.00;0.70;;;25.40;70.20;;;;;;5104254;28;20024;-41
2021/07/13 08:37:32;;;;;;;;;;;25.40;70.20;;;;;;5104750;28;20023;-41
2021/07/13 08:39:59;;;;;;;0.70;0.70;;;25.40;70.20;;;;;;5104265;28;19912;-42
2021/07/13 08:42:25;;;;;;;;;;;25.40;70.30;;;;;;5104251;28;20088;-42
2021/07/13 08:44:52;;;;;;;1.15;0.82;;;25.40;70.20;;;;;;5104198;28;19947;-41
2021/07/13 08:47:18;;;;;;;1.50;0.73;;;25.40;70.30;;;;;;5104027;28;20496;-40
2021/07/13 08:49:44;;;;;;;1.80;1.15;;;25.40;70.30;;;;;;5104077;28;20048;-42
2021/07/13 08:52:11;;;;;;;1.15;0.88;;;25.40;70.40;;;;;;5068932;28;20024;-41
2021/07/13 08:54:37;;;;;;;1.90;0.82;;;25.40;70.40;;;;;;5103964;28;20598;-41
2021/07/13 08:57:03;;;;;;;0.80;0.80;;;25.30;70.40;;;;;;5103744;28;20035;-41
2021/07/13 08:59:29;;;;;;;0.87;0.80;;;25.30;70.40;;;;;;5085258;28;20507;-42
2021/07/13 09:01:55;;;;;;;1.00;0.90;;;25.30;70.40;;;;;;5103558;28;20288;-42
2021/07/13 09:04:32;;;;;;;1.67;0.70;;;25.30;70.40;;;;;;5103699;28;20039;-42
2021/07/13 09:06:58;;;;;;;1.42;0.77;;;25.30;70.40;;;;;;5103740;28;20031;-42
2021/07/13 09:09:25;;;;;;;1.27;0.90;;;25.30;70.30;;;;;;5103510;28;20112;-42
2021/07/13 09:12:15;;;;;;;2.13;0.80;;;25.30;70.50;;;;;;5084971;28;20020;-42
2021/07/13 09:14:55;;;;;;;1.20;0.80;;;25.30;70.50;;;;;;5072898;28;20031;-42
2021/07/13 09:17:38;;;;;;;1.45;0.90;;;25.30;70.40;;;;;;5085106;28;20448;-42
2021/07/13 09:20:12;;;;;;;2.72;1.00;;;25.30;70.40;;;;;;5103520;28;20039;-42
2021/07/13 09:22:52;;;;;;;1.58;0.80;;;25.30;70.50;;;;;;5102819;28;20488;-41
2021/07/13 09:25:35;;;;;;;1.10;0.90;;;25.20;70.40;;;;;;5086848;28;20039;-41
2021/07/13 09:28:14;;;;;;;1.05;0.73;;;25.30;70.50;;;;;;5103142;28;20119;-42
2021/07/13 09:30:45;;;;;;;0.82;0.82;;;25.20;70.40;;;;;;5102617;28;20024;-42
2021/07/13 09:33:28;;;;;;;0.82;0.80;;;25.30;70.60;;;;;;5102789;28;20060;-42
2021/07/13 09:36:05;;;;;;;1.30;1.15;;;25.30;70.50;;;;;;5103252;28;20085;-43
2021/07/13 09:38:33;;;;;;;1.90;0.80;;;25.20;70.40;;;;;;5103330;28;20101;-41
2021/07/13 09:41:04;;;;;;;1.75;0.80;;;25.20;70.50;;;;;;5103011;28;20133;-42
2021/07/13 09:43:49;;;;;;;0.95;0.70;;;25.20;70.50;;;;;;5102750;28;20032;-42
2021/07/13 09:46:35;;;;;;;1.00;0.80;;;25.20;70.50;;;;;;5103075;28;20048;-42
2021/07/13 09:49:07;;;;;;;1.10;0.90;;;25.20;71.30;;;;;;5103074;28;20047;-42
2021/07/13 09:51:33;;;;;;;1.65;0.90;;;25.20;70.60;;;;;;5102981;28;20376;-42
2021/07/13 09:53:59;;;;;;;1.17;1.00;;;25.20;70.60;;;;;;5102900;28;20036;-42
2021/07/13 09:56:42;;;;;;;1.10;0.80;;;25.20;70.50;;;;;;5102573;28;20724;-42
2021/07/13 09:59:08;;;;;;;2.53;1.00;;;25.20;70.50;;;;;;5102574;28;20032;-42
2021/07/13 10:01:34;;;;;;;0.80;0.70;;;25.20;70.50;;;;;;5102793;28;20039;-41
2021/07/13 10:04:03;;;;;;;1.02;0.70;;;25.20;70.60;;;;;;5102757;28;20032;-42
2021/07/13 10:06:30;;;;;;;1.55;0.90;;;25.20;70.50;;;;;;5084547;28;20035;-42
2021/07/13 10:08:59;;;;;;;0.80;0.80;;;25.10;70.50;;;;;;5084625;28;20028;-42
2021/07/13 10:11:25;;;;;;;1.08;0.88;;;25.20;70.60;;;;;;5084503;28;20024;-42
2021/07/13 10:13:52;;;;;;;1.23;0.95;;;25.20;71.30;;;;;;5102790;28;20036;-41
2021/07/13 10:16:18;;;;;;;0.95;0.80;;;25.20;70.60;;;;;;5067408;28;20393;-42
2021/07/13 10:18:44;;;;;;;1.15;0.90;;;25.20;70.60;;;;;;5102705;28;20040;-42
2021/07/13 10:21:11;;;;;;;0.75;0.75;;;25.10;70.40;;;;;;5102824;28;20024;-42
2021/07/13 10:23:37;;;;;;;1.55;0.80;;;25.10;70.50;;;;;;5083947;28;20039;-41
2021/07/13 10:26:06;;;;;;;1.00;0.90;;;25.10;70.50;;;;;;5063808;28;20027;-41
2021/07/13 10:28:34;;;;;;;1.20;0.80;;;25.10;70.50;;;;;;5064684;28;20025;-42
2021/07/13 10:31:00;;;;;;;1.85;0.98;;;25.10;70.60;;;;;;5082351;28;20681;-42
2021/07/13 10:33:36;;;;;;;1.70;1.08;;;25.10;70.60;;;;;;5082281;28;20056;-42
2021/07/13 10:36:31;;;;;;;1.15;1.00;;;25.10;70.70;;;;;;5082008;28;20028;-42
2021/07/13 10:39:29;;;;;;;1.52;1.13;;;25.10;70.60;;;;;;5089049;28;20063;-42
2021/07/13 10:41:57;;;;;;;0.98;0.88;;;25.00;70.50;;;;;;5084350;28;20091;-41
2021/07/13 10:45:02;;;;;;;1.35;1.00;;;25.10;70.60;;;;;;5071216;28;20032;-42
2021/07/13 10:47:32;;;;;;;1.23;1.00;;;25.00;70.50;;;;;;4987154;28;20050;-41
2021/07/13 10:50:16;;;;;;;1.75;0.80;;;25.00;70.60;;;;;;4987890;28;20129;-43
2021/07/13 10:52:55;;;;;;;1.23;0.80;;;25.00;70.60;;;;;;5003586;28;20481;-41
2021/07/13 10:55:37;;;;;;;1.02;0.90;;;25.00;70.60;;;;;;5003497;28;20052;-41
2021/07/13 10:58:13;;;;;;;0.95;0.90;;;25.00;70.70;;;;;;4986751;28;20034;-41
2021/07/13 11:00:51;;;;;;;1.13;0.98;;;25.00;70.70;;;;;;5003488;28;20542;-42
2021/07/13 11:03:32;;;;;;;1.05;0.95;;;25.00;70.70;;;;;;5003400;28;20042;-41
2021/07/13 11:06:01;;;;;;;1.55;0.82;;;25.00;70.70;;;;;;5003251;28;20557;-42
2021/07/13 11:11:17;;;;;;;1.23;0.90;;;25.00;70.70;;;;;;5003144;28;20040;-42
2021/07/13 11:13:53;;;;;;;2.13;0.90;;;25.00;70.70;;;;;;5003260;28;20034;-41
2021/07/13 11:16:23;;;;;;;1.25;0.98;;;25.00;70.70;;;;;;5002951;28;20039;-42
2021/07/13 11:18:49;;;;;;;1.15;1.05;;;25.00;70.70;;;;;;4986996;28;20070;-42
2021/07/13 11:21:19;;;;;;;0.83;0.83;;;25.00;70.70;;;;;;4987011;28;20035;-42
2021/07/13 11:23:47;;;;;;;2.47;1.00;;;25.00;70.80;;;;;;5087086;28;20104;-41
2021/07/13 11:26:14;;;;;;;0.70;0.70;;;24.90;70.70;;;;;;5104838;28;20802;-42
2021/07/13 11:28:51;;;;;;;0.80;0.80;;;24.90;70.70;;;;;;5104460;28;20042;-42
2021/07/13 11:31:30;;;;;;;1.17;0.80;;;24.90;70.80;;;;;;5096736;28;20031;-42
2021/07/13 11:33:58;;;;;;;1.20;0.90;;;24.90;70.70;;;;;;5105204;28;20052;-41
2021/07/13 11:36:25;;;;;;;1.73;0.93;;;24.90;70.70;;;;;;5086860;28;20047;-41
2021/07/13 11:38:51;;;;;;;;;;;24.90;70.70;;;;;;5105644;28;20024;-42
2021/07/13 11:41:19;;;;;;;1.83;0.90;;;24.90;70.90;;;;;;5086383;28;19911;-42
2021/07/13 11:43:57;;;;;;;1.15;0.85;;;24.90;70.80;;;;;;5104903;28;20028;-42
2021/07/13 11:46:28;;;;;;;1.00;0.70;;;24.90;70.80;;;;;;5088318;28;20020;-42
2021/07/13 11:48:57;;;;;;;1.10;0.95;;;24.80;70.80;;;;;;5104910;28;20124;-41
2021/07/13 11:51:38;;;;;;;1.35;0.93;;;24.90;70.90;;;;;;5104980;28;20016;-41
2021/07/13 11:54:11;;;;;;;1.33;0.90;;;24.80;70.80;;;;;;5104333;28;20034;-41
2021/07/13 11:56:39;;;;;;;0.82;0.82;;;24.80;70.80;;;;;;5086050;28;20392;-41
2021/07/13 11:59:06;;;;;;;0.65;0.65;;;24.80;70.90;;;;;;5104792;28;20541;-42
2021/07/13 12:01:33;;;;;;;1.70;1.00;;;24.80;71.00;;;;;;5104746;28;20035;-43
2021/07/13 12:04:04;;;;;;;1.83;1.00;;;24.80;70.80;;;;;;5104592;28;20140;-41
2021/07/13 12:06:31;;;;;;;1.17;0.90;;;24.80;70.90;;;;;;5104230;28;20081;-41
2021/07/13 12:08:58;;;;;;;0.70;0.70;;;24.80;70.80;;;;;;5104526;28;20020;-41
2021/07/13 12:11:28;;;;;;;2.20;1.00;;;24.80;70.80;;;;;;5104478;28;20028;-42
2021/07/13 12:13:57;;;;;;;1.00;0.85;;;24.80;70.90;;;;;;5104655;28;20036;-41
2021/07/13 12:16:29;;;;;;;0.93;0.80;;;24.80;70.90;;;;;;5104204;28;20060;-42
2021/07/13 12:18:56;;;;;;;1.50;0.75;;;24.80;71.00;;;;;;5104501;28;20031;-42
2021/07/13 12:21:22;;;;;;;;;;;24.80;70.90;;;;;;5086854;28;20032;-42
2021/07/13 12:23:50;;;;;;;0.93;0.82;;;24.80;71.00;;;;;;5104048;28;19915;-41
2021/07/13 12:26:25;;;;;;;0.88;0.70;;;24.80;70.90;;;;;;5086055;28;20038;-42
2021/07/13 12:29:08;;;;;;;1.20;0.73;;;24.80;71.10;;;;;;5104398;28;20027;-42
2021/07/13 12:31:38;;;;;;;0.95;0.63;;;24.80;71.00;;;;;;5087222;28;20042;-41
2021/07/13 12:34:13;;;;;;;1.85;0.77;;;24.80;71.00;;;;;;5104018;28;20032;-42
2021/07/13 12:36:40;;;;;;;1.52;1.00;;;24.80;71.00;;;;;;5104035;28;20042;-42
2021/07/13 12:39:32;;;;;;;1.23;1.10;;;24.80;71.00;;;;;;5104063;28;20378;-42
2021/07/13 12:42:06;;;;;;;0.90;0.82;;;24.80;71.10;;;;;;5099456;28;20044;-42
2021/07/13 12:44:34;;;;;;;1.02;0.88;;;24.80;71.10;;;;;;5104001;28;20039;-42
2021/07/13 12:47:24;;;;;;;0.80;0.77;;;24.70;71.00;;;;;;5103951;28;20020;-41
2021/07/13 12:50:03;;;;;;;0.95;0.80;;;24.80;71.10;;;;;;5093635;28;20033;-41
2021/07/13 12:52:57;;;;;;;0.60;0.60;;;24.70;71.10;;;;;;5083479;28;20033;-42
2021/07/13 12:55:31;;;;;;;2.25;0.82;;;24.80;71.30;;;;;;5083276;28;20115;-42
2021/07/13 12:58:16;;;;;;;0.95;0.88;;;24.70;71.10;;;;;;5083295;28;20025;-40
2021/07/13 13:00:44;;;;;;;0.98;0.88;;;24.70;71.20;;;;;;5066900;28;20140;-42